createdAt,value
2023-05-13T00:01:24.731Z,63.43
2023-05-13T00:03:27.520Z,63.79
2023-05-13T00:05:30.588Z,64.26
2023-05-13T00:07:33.479Z,64.68
2023-05-13T00:09:36.339Z,65.58
2023-05-13T00:11:39.441Z,66.47
2023-05-13T00:13:42.154Z,67.13
2023-05-13T00:15:44.843Z,67.54
2023-05-13T00:17:47.628Z,67.49
2023-05-13T00:19:50.356Z,66.65
2023-05-13T00:21:53.073Z,66.55
2023-05-13T00:23:55.911Z,66.38
2023-05-13T00:25:59.774Z,66.88
2023-05-13T00:28:02.577Z,67.11
2023-05-13T00:30:05.927Z,67.53
2023-05-13T00:32:11.178Z,67.34
2023-05-13T00:34:14.025Z,67.65
2023-05-13T00:36:16.875Z,67.63
2023-05-13T00:38:19.573Z,67.36
2023-05-13T00:40:24.942Z,67.34
2023-05-13T00:42:27.720Z,67.16
2023-05-13T00:44:30.557Z,67.34
2023-05-13T00:46:34.100Z,67.80
2023-05-13T00:48:37.035Z,67.92
2023-05-13T00:50:42.454Z,68.63
2023-05-13T00:52:45.449Z,68.72
2023-05-13T00:54:48.308Z,69.14
2023-05-13T00:56:54.619Z,69.54
2023-05-13T00:58:57.318Z,69.57
2023-05-13T01:01:34.521Z,70.27
2023-05-13T01:04:04.966Z,71.05
2023-05-13T01:06:32.887Z,71.05
2023-05-13T01:08:43.865Z,70.51
2023-05-13T01:10:49.993Z,70.61
2023-05-13T01:12:58.295Z,70.73
2023-05-13T01:15:11.594Z,71.41
2023-05-13T01:17:18.634Z,71.19
2023-05-13T01:19:23.985Z,70.98
2023-05-13T01:21:28.048Z,71.75
2023-05-13T01:23:31.297Z,71.64
2023-05-13T01:25:33.992Z,72.26
2023-05-13T01:27:36.804Z,72.00
2023-05-13T01:29:41.117Z,72.22
2023-05-13T01:31:46.502Z,72.13
2023-05-13T01:33:50.214Z,71.62
2023-05-13T01:35:53.141Z,71.79
2023-05-13T01:38:00.849Z,72.34
2023-05-13T01:40:17.011Z,72.20
2023-05-13T01:42:31.442Z,72.14
2023-05-13T01:44:34.132Z,72.00
2023-05-13T01:46:39.199Z,71.70
2023-05-13T01:48:41.998Z,71.80
2023-05-13T01:50:45.114Z,72.39
2023-05-13T01:52:48.034Z,72.42
2023-05-13T01:54:50.783Z,72.34
2023-05-13T01:56:53.495Z,72.33
2023-05-13T01:58:56.388Z,71.97
2023-05-13T02:00:59.209Z,72.24
2023-05-13T02:03:02.035Z,71.76
2023-05-13T02:05:05.716Z,71.60
2023-05-13T02:07:08.359Z,71.76
2023-05-13T02:09:11.064Z,71.41
2023-05-13T02:11:13.836Z,71.68
2023-05-13T02:13:16.674Z,71.71
2023-05-13T02:15:19.522Z,71.26
2023-05-13T02:17:22.856Z,70.98
2023-05-13T02:19:25.897Z,70.35
2023-05-13T02:21:28.906Z,70.76
2023-05-13T02:23:31.613Z,71.33
2023-05-13T02:25:34.826Z,71.39
2023-05-13T02:27:37.650Z,70.75
2023-05-13T02:29:40.448Z,70.97
2023-05-13T02:31:43.508Z,70.75
2023-05-13T02:33:46.288Z,70.47
2023-05-13T02:35:48.917Z,71.10
2023-05-13T02:37:51.700Z,70.86
2023-05-13T02:39:54.476Z,70.87
2023-05-13T02:41:57.749Z,71.14
2023-05-13T02:44:00.448Z,71.11
2023-05-13T02:46:04.084Z,70.26
2023-05-13T02:48:06.895Z,70.10
2023-05-13T02:50:10.382Z,69.74
2023-05-13T02:52:13.035Z,68.89
2023-05-13T02:54:15.650Z,69.07
2023-05-13T02:56:18.905Z,68.83
2023-05-13T02:58:21.592Z,68.29
2023-05-13T03:00:24.463Z,67.89
2023-05-13T03:02:28.434Z,68.40
2023-05-13T03:04:31.451Z,68.43
2023-05-13T03:06:34.197Z,68.81
2023-05-13T03:08:36.952Z,68.36
2023-05-13T03:10:39.901Z,68.70
2023-05-13T03:12:43.577Z,68.67
2023-05-13T03:14:46.301Z,68.74
2023-05-13T03:16:48.986Z,69.13
2023-05-13T03:18:51.722Z,68.46
2023-05-13T03:20:54.581Z,68.45
2023-05-13T03:22:57.480Z,68.68
2023-05-13T03:25:00.383Z,68.82
2023-05-13T03:27:03.370Z,68.00
2023-05-13T03:29:06.169Z,68.12
2023-05-13T03:31:08.941Z,67.82
2023-05-13T03:33:11.814Z,67.50
2023-05-13T03:35:14.578Z,66.60
2023-05-13T03:37:17.293Z,66.59
2023-05-13T03:39:20.168Z,65.53
2023-05-13T03:41:22.928Z,65.38
2023-05-13T03:43:25.694Z,65.02
2023-05-13T03:45:28.434Z,64.58
2023-05-13T03:47:31.296Z,64.15
2023-05-13T03:49:34.107Z,64.38
2023-05-13T03:51:36.780Z,63.61
2023-05-13T03:53:39.683Z,63.36
2023-05-13T03:55:42.381Z,63.27
2023-05-13T03:57:48.479Z,63.02
2023-05-13T03:59:51.235Z,62.36
2023-05-13T04:01:53.866Z,62.73
2023-05-13T04:03:56.795Z,62.02
2023-05-13T04:05:59.828Z,62.35
2023-05-13T04:08:02.555Z,62.15
2023-05-13T04:10:05.765Z,61.55
2023-05-13T04:12:08.572Z,60.89
2023-05-13T04:14:11.386Z,60.94
2023-05-13T04:16:14.668Z,61.21
2023-05-13T04:18:17.352Z,61.47
2023-05-13T04:20:20.701Z,60.97
2023-05-13T04:22:24.984Z,61.14
2023-05-13T04:24:27.840Z,60.80
2023-05-13T04:26:30.479Z,60.02
2023-05-13T04:28:33.285Z,59.43
2023-05-13T04:30:36.721Z,58.88
2023-05-13T04:32:39.892Z,58.53
2023-05-13T04:34:42.692Z,58.25
2023-05-13T04:36:46.765Z,57.51
2023-05-13T04:38:49.502Z,58.12
2023-05-13T04:40:52.771Z,56.71
2023-05-13T04:42:55.896Z,54.57
2023-05-13T04:44:58.724Z,54.81
2023-05-13T04:47:01.443Z,54.18
2023-05-13T04:49:04.344Z,54.04
2023-05-13T04:51:07.492Z,54.61
2023-05-13T04:53:10.624Z,54.46
2023-05-13T04:55:13.740Z,53.76
2023-05-13T04:57:16.558Z,53.31
2023-05-13T04:59:19.331Z,53.25
2023-05-13T05:01:22.102Z,53.44
2023-05-13T05:03:25.473Z,53.85
2023-05-13T05:05:28.273Z,53.12
2023-05-13T05:07:31.122Z,53.30
2023-05-13T05:09:33.871Z,52.43
2023-05-13T05:11:36.625Z,51.88
2023-05-13T05:13:39.420Z,51.38
2023-05-13T05:15:42.140Z,52.13
2023-05-13T05:17:45.624Z,51.09
2023-05-13T05:19:48.322Z,51.05
2023-05-13T05:21:51.989Z,50.12
2023-05-13T05:23:55.145Z,49.81
2023-05-13T05:26:08.370Z,50.93
2023-05-13T05:28:14.684Z,49.86
2023-05-13T05:30:17.299Z,49.88
2023-05-13T05:32:20.248Z,49.45
2023-05-13T05:34:22.990Z,47.24
2023-05-13T05:36:25.940Z,47.94
2023-05-13T05:38:28.698Z,48.41
2023-05-13T05:40:33.087Z,47.39
2023-05-13T05:42:35.930Z,47.52
2023-05-13T05:44:38.700Z,47.11
2023-05-13T05:46:41.441Z,46.63
2023-05-13T05:48:44.109Z,45.75
2023-05-13T05:50:46.816Z,45.38
2023-05-13T05:52:49.802Z,45.49
2023-05-13T05:54:52.542Z,46.67
2023-05-13T05:56:55.509Z,46.11
2023-05-13T05:58:58.333Z,45.48
2023-05-13T06:01:01.550Z,45.40
2023-05-13T06:03:04.992Z,45.66
2023-05-13T06:05:08.527Z,45.66
2023-05-13T06:07:11.392Z,43.90
2023-05-13T06:09:14.158Z,44.68
2023-05-13T06:11:16.809Z,44.38
2023-05-13T06:13:19.488Z,44.79
2023-05-13T06:15:22.593Z,44.30
2023-05-13T06:17:25.881Z,44.29
2023-05-13T06:19:28.628Z,43.41
2023-05-13T06:21:32.278Z,43.56
2023-05-13T06:23:34.904Z,43.65
2023-05-13T06:25:37.628Z,43.81
2023-05-13T06:27:40.305Z,43.21
2023-05-13T06:29:42.969Z,43.15
2023-05-13T06:31:45.737Z,43.57
2023-05-13T06:33:48.350Z,42.66
2023-05-13T06:35:51.071Z,42.65
2023-05-13T06:37:54.090Z,42.54
2023-05-13T06:39:56.836Z,43.06
2023-05-13T06:41:59.460Z,42.61
2023-05-13T06:44:02.158Z,42.16
2023-05-13T06:46:04.890Z,41.71
2023-05-13T06:48:07.685Z,42.55
2023-05-13T06:50:10.949Z,42.19
2023-05-13T06:52:13.643Z,42.06
2023-05-13T06:54:16.611Z,41.85
2023-05-13T06:56:20.050Z,40.10
2023-05-13T06:58:22.864Z,40.08
2023-05-13T07:00:25.604Z,39.86
2023-05-13T07:02:28.323Z,39.67
2023-05-13T07:04:31.013Z,40.05
2023-05-13T07:06:33.693Z,39.86
2023-05-13T07:08:36.523Z,39.25
2023-05-13T07:10:39.170Z,39.66
2023-05-13T07:12:41.816Z,39.85
2023-05-13T07:14:45.463Z,39.82
2023-05-13T07:16:48.336Z,39.94
2023-05-13T07:18:51.310Z,39.16
2023-05-13T07:20:53.990Z,38.89
2023-05-13T07:22:56.658Z,39.13
2023-05-13T07:24:59.726Z,38.67
2023-05-13T07:27:03.933Z,38.20
2023-05-13T07:29:06.689Z,38.38
2023-05-13T07:31:09.387Z,38.40
2023-05-13T07:33:12.283Z,38.27
2023-05-13T07:35:16.883Z,37.77
2023-05-13T07:37:19.551Z,36.91
2023-05-13T07:39:22.172Z,36.51
2023-05-13T07:41:24.807Z,36.04
2023-05-13T07:43:28.065Z,35.98
2023-05-13T07:45:30.748Z,35.86
2023-05-13T07:47:33.758Z,36.37
2023-05-13T07:49:36.607Z,36.56
2023-05-13T07:51:39.267Z,37.01
2023-05-13T07:53:42.112Z,36.95
2023-05-13T07:55:44.700Z,36.14
2023-05-13T07:57:47.373Z,35.37
2023-05-13T07:59:50.014Z,36.50
2023-05-13T08:01:52.712Z,36.73
2023-05-13T08:03:55.663Z,36.29
2023-05-13T08:05:58.426Z,36.47
2023-05-13T08:08:01.985Z,35.93
2023-05-13T08:10:05.193Z,34.51
2023-05-13T08:12:09.550Z,35.12
2023-05-13T08:14:12.242Z,35.67
2023-05-13T08:16:14.952Z,34.79
2023-05-13T08:18:17.742Z,34.69
2023-05-13T08:20:21.228Z,34.21
2023-05-13T08:22:23.966Z,34.82
2023-05-13T08:24:26.616Z,33.73
2023-05-13T08:26:29.357Z,33.30
2023-05-13T08:28:32.126Z,33.59
2023-05-13T08:30:34.774Z,33.50
2023-05-13T08:32:37.781Z,33.61
2023-05-13T08:34:40.499Z,33.64
2023-05-13T08:36:43.301Z,33.31
2023-05-13T08:38:46.336Z,32.66
2023-05-13T08:40:49.086Z,32.56
2023-05-13T08:42:56.375Z,34.45
2023-05-13T08:45:02.745Z,30.95
2023-05-13T08:47:30.191Z,29.85
2023-05-13T08:49:34.809Z,30.21
2023-05-13T08:51:37.620Z,30.05
2023-05-13T08:53:41.293Z,29.59
2023-05-13T08:55:43.981Z,29.28
2023-05-13T08:57:46.941Z,29.96
2023-05-13T08:59:49.594Z,29.67
2023-05-13T09:01:53.125Z,29.73
2023-05-13T09:04:00.237Z,29.69
2023-05-13T09:06:03.527Z,30.02
2023-05-13T09:08:09.920Z,30.23
2023-05-13T09:10:12.709Z,30.43
2023-05-13T09:12:41.175Z,30.03
2023-05-13T09:14:43.778Z,30.66
2023-05-13T09:16:47.998Z,30.77
2023-05-13T09:18:55.812Z,30.32
2023-05-13T09:20:58.707Z,30.28
2023-05-13T09:23:09.385Z,29.46
2023-05-13T09:25:13.683Z,29.06
2023-05-13T09:27:16.532Z,30.02
2023-05-13T09:29:26.202Z,29.45
2023-05-13T09:31:34.779Z,28.57
2023-05-13T09:33:37.543Z,29.14
2023-05-13T09:35:51.153Z,29.15
2023-05-13T09:37:54.335Z,29.14
2023-05-13T09:39:57.201Z,29.53
2023-05-13T09:42:04.519Z,29.14
2023-05-13T09:44:10.496Z,30.02
2023-05-13T09:46:13.286Z,29.73
2023-05-13T09:48:16.096Z,30.09
2023-05-13T09:50:18.876Z,30.09
2023-05-13T09:52:22.838Z,30.29
2023-05-13T09:54:25.997Z,30.64
2023-05-13T09:56:31.148Z,31.34
2023-05-13T09:58:34.798Z,30.59
2023-05-13T10:00:39.221Z,30.59
2023-05-13T10:02:42.642Z,30.34
2023-05-13T10:04:45.862Z,29.65
2023-05-13T10:06:49.557Z,29.64
2023-05-13T10:08:53.612Z,29.83
2023-05-13T10:10:57.039Z,29.30
2023-05-13T10:13:04.006Z,29.35
2023-05-13T10:15:08.209Z,29.43
2023-05-13T10:17:11.886Z,29.50
2023-05-13T10:19:15.134Z,29.20
2023-05-13T10:21:19.554Z,29.71
2023-05-13T10:23:24.582Z,30.18
2023-05-13T10:25:29.649Z,29.79
2023-05-13T10:27:33.659Z,31.75
2023-05-13T10:29:39.177Z,31.12
2023-05-13T10:31:42.688Z,28.99
2023-05-13T10:33:46.198Z,29.15
2023-05-13T10:36:11.577Z,30.03
2023-05-13T10:38:18.168Z,28.30
2023-05-13T10:40:38.135Z,27.59
2023-05-13T10:42:43.285Z,28.38
2023-05-13T10:44:46.068Z,29.19
2023-05-13T10:46:49.102Z,26.48
2023-05-13T10:48:58.507Z,25.98
2023-05-13T10:51:08.252Z,27.28
2023-05-13T10:53:20.308Z,26.83
2023-05-13T10:55:23.396Z,27.10
2023-05-13T10:57:35.979Z,26.45
2023-05-13T11:00:19.116Z,24.19
2023-05-13T11:02:23.579Z,26.39
2023-05-13T11:04:26.323Z,24.39
2023-05-13T11:06:40.986Z,24.86
2023-05-13T11:08:48.564Z,25.50
2023-05-13T11:10:55.695Z,25.31
2023-05-13T11:13:16.721Z,25.64
2023-05-13T11:15:22.468Z,25.56
2023-05-13T11:17:25.253Z,25.60
2023-05-13T11:19:30.435Z,26.19
2023-05-13T11:21:36.595Z,26.57
2023-05-13T11:23:58.336Z,26.01
2023-05-13T11:26:12.525Z,26.00
2023-05-13T11:28:18.691Z,26.84
2023-05-13T11:30:28.079Z,25.91
2023-05-13T11:32:52.384Z,26.20
2023-05-13T11:34:55.628Z,26.85
2023-05-13T11:37:08.536Z,27.03
2023-05-13T11:39:14.354Z,27.63
2023-05-13T11:41:17.305Z,27.77
2023-05-13T11:43:22.112Z,28.86
2023-05-13T11:45:26.597Z,29.43
2023-05-13T11:47:29.355Z,30.11
2023-05-13T11:49:42.207Z,30.52
2023-05-13T11:51:45.026Z,30.38
2023-05-13T11:53:47.750Z,29.99
2023-05-13T11:55:50.521Z,29.54
2023-05-13T11:57:53.783Z,29.58
2023-05-13T12:00:10.539Z,29.17
2023-05-13T12:02:13.227Z,29.34
2023-05-13T12:04:15.888Z,28.94
2023-05-13T12:06:18.905Z,28.93
2023-05-13T12:08:23.774Z,29.70
2023-05-13T12:10:27.320Z,31.95
2023-05-13T12:12:31.744Z,32.50
2023-05-13T12:14:34.492Z,33.23
2023-05-13T12:16:37.308Z,34.15
2023-05-13T12:18:39.948Z,34.30
2023-05-13T12:20:42.561Z,34.69
2023-05-13T12:22:45.141Z,34.94
2023-05-13T12:24:48.033Z,34.81
2023-05-13T12:26:51.787Z,35.02
2023-05-13T12:29:00.890Z,34.56
2023-05-13T12:31:08.094Z,35.22
2023-05-13T12:33:16.034Z,35.56
2023-05-13T12:35:18.716Z,35.97
2023-05-13T12:37:26.324Z,35.92
2023-05-13T12:39:28.950Z,36.55
2023-05-13T12:41:33.642Z,36.04
2023-05-13T12:43:36.603Z,36.40
2023-05-13T12:45:43.950Z,36.80
2023-05-13T12:47:51.406Z,36.87
2023-05-13T12:50:06.038Z,37.55
2023-05-13T12:52:08.692Z,37.74
2023-05-13T12:54:12.192Z,37.84
2023-05-13T12:56:15.435Z,37.85
2023-05-13T12:58:18.227Z,38.19
2023-05-13T13:00:21.219Z,38.18
2023-05-13T13:02:23.906Z,38.38
2023-05-13T13:04:26.776Z,37.37
2023-05-13T13:06:29.429Z,36.99
2023-05-13T13:08:32.265Z,37.12
2023-05-13T13:10:35.009Z,37.34
2023-05-13T13:12:38.560Z,36.58
2023-05-13T13:14:41.386Z,36.34
2023-05-13T13:16:44.675Z,36.51
2023-05-13T13:18:47.804Z,36.78
2023-05-13T13:20:51.720Z,34.84
2023-05-13T13:22:54.988Z,33.02
2023-05-13T13:24:57.792Z,32.52
2023-05-13T13:27:00.679Z,31.36
2023-05-13T13:29:03.282Z,30.54
2023-05-13T13:31:07.886Z,29.66
2023-05-13T13:33:12.853Z,29.74
2023-05-13T13:35:15.873Z,29.45
2023-05-13T13:37:18.582Z,29.67
2023-05-13T13:39:21.416Z,30.21
2023-05-13T13:41:25.733Z,30.42
2023-05-13T13:43:28.536Z,30.06
2023-05-13T13:45:31.489Z,29.95
2023-05-13T13:47:35.221Z,28.78
2023-05-13T13:49:37.935Z,28.98
2023-05-13T13:51:40.704Z,29.22
2023-05-13T13:53:43.279Z,29.64
2023-05-13T13:55:46.225Z,30.48
2023-05-13T13:57:49.018Z,32.07
2023-05-13T13:59:51.649Z,31.80
2023-05-13T14:01:54.414Z,32.09
2023-05-13T14:04:17.565Z,33.25
2023-05-13T14:06:20.222Z,34.41
2023-05-13T14:08:23.016Z,36.63
2023-05-13T14:10:25.739Z,39.22
2023-05-13T14:12:28.404Z,40.69
2023-05-13T14:14:31.101Z,42.02
2023-05-13T14:16:33.767Z,42.03
2023-05-13T14:18:36.455Z,42.50
2023-05-13T14:20:39.506Z,41.90
2023-05-13T14:22:42.186Z,42.19
2023-05-13T14:24:44.786Z,42.70
2023-05-13T14:26:47.493Z,42.55
2023-05-13T14:28:50.163Z,42.80
2023-05-13T14:30:52.749Z,43.76
2023-05-13T14:32:55.552Z,44.57
2023-05-13T14:34:58.170Z,44.68
2023-05-13T14:37:00.833Z,44.85
2023-05-13T14:39:03.679Z,44.89
2023-05-13T14:41:06.348Z,45.32
2023-05-13T14:43:09.030Z,46.03
2023-05-13T14:45:15.337Z,46.31
2023-05-13T14:47:19.583Z,46.60
2023-05-13T14:49:22.290Z,46.90
2023-05-13T14:51:24.962Z,47.11
2023-05-13T14:53:27.568Z,47.46
2023-05-13T14:55:30.380Z,49.62
2023-05-13T14:57:33.617Z,52.00
2023-05-13T14:59:36.307Z,53.41
2023-05-13T15:01:39.102Z,54.78
2023-05-13T15:03:41.881Z,54.85
2023-05-13T15:05:45.722Z,53.83
2023-05-13T15:07:48.410Z,53.25
2023-05-13T15:09:51.246Z,53.66
2023-05-13T15:11:53.986Z,53.48
2023-05-13T15:13:56.881Z,54.29
2023-05-13T15:15:59.541Z,54.04
2023-05-13T15:18:02.541Z,54.42
2023-05-13T15:20:05.677Z,53.94
2023-05-13T15:22:08.756Z,54.02
2023-05-13T15:24:11.430Z,54.10
2023-05-13T15:26:14.221Z,53.97
2023-05-13T15:28:16.864Z,53.05
2023-05-13T15:30:19.761Z,53.41
2023-05-13T15:32:22.613Z,53.22
2023-05-13T15:34:25.491Z,53.54
2023-05-13T15:36:28.102Z,53.56
2023-05-13T15:38:30.793Z,53.57
2023-05-13T15:40:33.477Z,52.84
2023-05-13T15:42:36.200Z,52.81
2023-05-13T15:44:38.988Z,53.02
2023-05-13T15:46:42.474Z,52.69
2023-05-13T15:48:45.204Z,52.87
2023-05-13T15:50:47.908Z,52.54
2023-05-13T15:52:50.609Z,52.59
2023-05-13T15:54:53.369Z,52.46
2023-05-13T15:56:56.957Z,52.52
2023-05-13T15:58:59.592Z,52.93
2023-05-13T16:01:02.330Z,53.42
2023-05-13T16:03:05.042Z,53.41
2023-05-13T16:05:07.960Z,53.74
2023-05-13T16:07:12.240Z,54.06
2023-05-13T16:09:14.930Z,54.01
2023-05-13T16:11:17.589Z,54.77
2023-05-13T16:13:21.393Z,54.23
2023-05-13T16:15:24.143Z,54.18
2023-05-13T16:17:26.898Z,53.45
2023-05-13T16:19:29.647Z,53.15
2023-05-13T16:21:32.528Z,53.18
2023-05-13T16:23:35.639Z,53.29
2023-05-13T16:25:39.526Z,53.40
2023-05-13T16:27:43.330Z,53.41
2023-05-13T16:29:46.453Z,52.86
2023-05-13T16:31:49.165Z,52.75
2023-05-13T16:33:52.011Z,52.89
2023-05-13T16:35:54.720Z,53.04
2023-05-13T16:37:57.489Z,53.04
2023-05-13T16:40:00.193Z,53.61
2023-05-13T16:42:02.936Z,53.91
2023-05-13T16:44:05.554Z,53.00
2023-05-13T16:46:08.220Z,53.53
2023-05-13T16:48:11.023Z,53.71
2023-05-13T16:50:13.868Z,53.67
2023-05-13T16:52:16.525Z,53.86
2023-05-13T16:54:19.218Z,53.14
2023-05-13T16:56:22.394Z,52.98
2023-05-13T16:58:25.137Z,52.74
2023-05-13T17:00:27.846Z,52.78
2023-05-13T17:02:30.797Z,53.06
2023-05-13T17:04:34.072Z,53.02
2023-05-13T17:06:36.881Z,53.08
2023-05-13T17:08:39.604Z,52.87
2023-05-13T17:10:42.262Z,53.01
2023-05-13T17:12:44.874Z,52.94
2023-05-13T17:14:47.671Z,52.85
2023-05-13T17:16:50.775Z,52.50
2023-05-13T17:18:53.777Z,52.75
2023-05-13T17:20:56.471Z,53.60
2023-05-13T17:22:59.089Z,53.44
2023-05-13T17:25:01.892Z,53.90
2023-05-13T17:27:07.651Z,54.92
2023-05-13T17:29:10.414Z,55.88
2023-05-13T17:31:13.148Z,56.23
2023-05-13T17:33:16.046Z,56.30
2023-05-13T17:35:18.879Z,56.13
2023-05-13T17:37:21.524Z,57.54
2023-05-13T17:39:24.386Z,59.37
2023-05-13T17:41:27.006Z,60.01
2023-05-13T17:43:29.678Z,61.73
2023-05-13T17:45:32.876Z,63.12
2023-05-13T17:47:35.806Z,63.34
2023-05-13T17:49:38.538Z,63.01
2023-05-13T17:51:42.121Z,62.87
2023-05-13T17:53:44.873Z,63.10
2023-05-13T17:55:48.794Z,62.97
2023-05-13T17:57:51.840Z,62.24
2023-05-13T17:59:54.491Z,61.72
2023-05-13T18:01:57.091Z,61.15
2023-05-13T18:03:59.857Z,61.12
2023-05-13T18:06:02.540Z,61.21
2023-05-13T18:08:05.507Z,62.00
2023-05-13T18:10:08.932Z,62.07
2023-05-13T18:12:11.799Z,62.90
2023-05-13T18:14:14.435Z,63.13
2023-05-13T18:16:19.528Z,63.74
2023-05-13T18:18:22.513Z,64.56
2023-05-13T18:20:25.543Z,65.06
2023-05-13T18:22:28.132Z,66.15
2023-05-13T18:24:30.811Z,66.32
2023-05-13T18:26:33.608Z,66.51
2023-05-13T18:28:36.312Z,67.01
2023-05-13T18:30:38.981Z,67.45
2023-05-13T18:32:41.658Z,67.78
2023-05-13T18:34:44.482Z,67.82
2023-05-13T18:36:47.359Z,67.88
2023-05-13T18:38:50.098Z,68.45
2023-05-13T18:40:52.851Z,68.51
2023-05-13T18:42:55.537Z,68.84
2023-05-13T18:44:58.267Z,69.11
2023-05-13T18:47:01.014Z,69.51
2023-05-13T18:49:06.609Z,69.76
2023-05-13T18:51:09.288Z,69.86
2023-05-13T18:53:11.959Z,70.09
2023-05-13T18:55:14.589Z,70.30
2023-05-13T18:57:17.417Z,70.86
2023-05-13T18:59:20.181Z,70.91
2023-05-13T19:01:23.205Z,71.12
2023-05-13T19:03:27.130Z,71.72
2023-05-13T19:05:29.918Z,71.92
2023-05-13T19:07:32.544Z,72.66
2023-05-13T19:09:36.190Z,72.21
2023-05-13T19:11:38.877Z,72.27
2023-05-13T19:13:47.167Z,72.40
2023-05-13T19:15:50.112Z,72.46
2023-05-13T19:17:53.366Z,72.03
2023-05-13T19:19:57.351Z,72.42
2023-05-13T19:21:59.939Z,72.31
2023-05-13T19:24:03.574Z,72.40
2023-05-13T19:26:06.567Z,73.50
2023-05-13T19:28:10.655Z,74.31
2023-05-13T19:30:13.590Z,74.97
2023-05-13T19:32:16.861Z,75.23
2023-05-13T19:34:19.526Z,75.60
2023-05-13T19:36:26.326Z,75.51
2023-05-13T19:38:29.534Z,76.38
2023-05-13T19:40:32.270Z,76.84
2023-05-13T19:42:35.010Z,77.46
2023-05-13T19:44:37.929Z,77.63
2023-05-13T19:46:41.470Z,78.28
2023-05-13T19:48:44.319Z,77.31
2023-05-13T19:50:47.095Z,77.57
2023-05-13T19:52:49.740Z,76.72
2023-05-13T19:54:53.075Z,76.11
2023-05-13T19:56:56.305Z,76.06
2023-05-13T19:58:58.951Z,76.13
2023-05-13T20:01:01.687Z,76.45
2023-05-13T20:03:04.704Z,76.70
2023-05-13T20:05:11.040Z,76.40
2023-05-13T20:07:13.808Z,76.92
2023-05-13T20:09:16.553Z,76.98
2023-05-13T20:11:19.220Z,76.80
2023-05-13T20:13:21.867Z,77.38
2023-05-13T20:15:24.717Z,77.00
2023-05-13T20:17:27.816Z,77.26
2023-05-13T20:19:30.591Z,77.65
2023-05-13T20:21:33.251Z,78.13
2023-05-13T20:23:35.987Z,78.06
2023-05-13T20:25:38.706Z,78.34
2023-05-13T20:27:41.530Z,78.09
2023-05-13T20:29:48.156Z,78.17
2023-05-13T20:31:51.020Z,78.35
2023-05-13T20:33:54.880Z,78.42
2023-05-13T20:35:57.557Z,79.29
2023-05-13T20:38:01.328Z,79.37
2023-05-13T20:40:04.813Z,79.46
2023-05-13T20:42:08.280Z,79.40
2023-05-13T20:44:12.766Z,79.94
2023-05-13T20:46:17.269Z,80.43
2023-05-13T20:48:20.207Z,80.21
2023-05-13T20:50:23.036Z,80.36
2023-05-13T20:52:26.760Z,80.63
2023-05-13T20:54:29.475Z,80.53
2023-05-13T20:56:32.138Z,80.81
2023-05-13T20:58:34.796Z,80.57
2023-05-13T21:00:37.514Z,80.85
2023-05-13T21:02:40.577Z,80.55
2023-05-13T21:04:43.239Z,80.84
2023-05-13T21:06:45.996Z,80.96
2023-05-13T21:08:48.739Z,80.97
2023-05-13T21:10:51.648Z,80.91
2023-05-13T21:12:54.398Z,81.23
2023-05-13T21:14:57.047Z,80.96
2023-05-13T21:17:03.218Z,81.00
2023-05-13T21:19:06.131Z,81.04
2023-05-13T21:21:12.490Z,81.37
2023-05-13T21:23:17.805Z,81.55
2023-05-13T21:25:21.553Z,81.80
2023-05-13T21:27:24.155Z,82.00
2023-05-13T21:29:26.977Z,82.03
2023-05-13T21:31:29.793Z,82.24
2023-05-13T21:33:33.283Z,82.36
2023-05-13T21:35:36.039Z,82.58
2023-05-13T21:37:38.774Z,82.79
2023-05-13T21:39:41.604Z,82.46
2023-05-13T21:41:45.050Z,83.18
2023-05-13T21:43:47.707Z,83.68
2023-05-13T21:45:50.388Z,84.17
2023-05-13T21:47:53.057Z,84.36
2023-05-13T21:49:55.944Z,84.80
2023-05-13T21:51:58.728Z,85.23
2023-05-13T21:54:01.616Z,85.46
2023-05-13T21:56:04.545Z,86.01
2023-05-13T21:58:07.389Z,86.20
2023-05-13T22:00:15.297Z,86.32
2023-05-13T22:02:18.016Z,87.05
2023-05-13T22:04:20.729Z,87.34
2023-05-13T22:06:23.359Z,86.65
2023-05-13T22:08:26.099Z,87.26
2023-05-13T22:10:28.757Z,86.89
2023-05-13T22:12:31.340Z,87.05
2023-05-13T22:14:34.149Z,87.81
2023-05-13T22:16:38.480Z,88.04
2023-05-13T22:18:41.747Z,88.05
2023-05-13T22:20:44.491Z,88.70
2023-05-13T22:22:47.187Z,89.53
2023-05-13T22:24:50.646Z,89.64
2023-05-13T22:26:53.282Z,89.53
2023-05-13T22:28:55.922Z,89.94
2023-05-13T22:30:58.696Z,90.87
2023-05-13T22:33:01.388Z,90.82
2023-05-13T22:35:05.429Z,91.56
2023-05-13T22:37:09.984Z,92.01
2023-05-13T22:39:13.615Z,91.66
2023-05-13T22:41:19.050Z,92.23
2023-05-13T22:43:21.816Z,92.89
2023-05-13T22:45:24.556Z,92.93
2023-05-13T22:47:27.260Z,93.27
2023-05-13T22:49:29.901Z,93.31
2023-05-13T22:51:32.811Z,93.40
2023-05-13T22:53:35.733Z,94.03
2023-05-13T22:55:38.469Z,94.53
2023-05-13T22:57:41.076Z,94.95
2023-05-13T22:59:43.730Z,94.96
2023-05-13T23:01:46.429Z,95.29
2023-05-13T23:03:49.128Z,95.60
2023-05-13T23:05:51.815Z,95.43
2023-05-13T23:07:54.441Z,95.41
2023-05-13T23:09:57.192Z,95.68
2023-05-13T23:11:59.854Z,96.01
2023-05-13T23:14:02.500Z,95.92
2023-05-13T23:16:05.478Z,96.49
2023-05-13T23:18:08.315Z,95.80
2023-05-13T23:20:11.466Z,95.52
2023-05-13T23:22:14.173Z,95.39
2023-05-13T23:24:16.808Z,95.43
2023-05-13T23:26:19.472Z,94.69
2023-05-13T23:28:22.223Z,94.36
2023-05-13T23:30:25.155Z,94.40
2023-05-13T23:32:28.126Z,94.39
2023-05-13T23:34:30.812Z,94.15
2023-05-13T23:36:33.631Z,94.41
2023-05-13T23:38:36.320Z,94.17
2023-05-13T23:40:38.938Z,93.62
2023-05-13T23:42:43.132Z,92.98
2023-05-13T23:44:45.828Z,92.02
2023-05-13T23:46:48.565Z,91.94
2023-05-13T23:48:51.424Z,91.58
2023-05-13T23:50:54.588Z,91.00
2023-05-13T23:52:57.443Z,90.74
2023-05-13T23:55:02.000Z,90.87
2023-05-13T23:57:08.392Z,91.31
2023-05-13T23:59:11.278Z,91.08
